sensor_id;sensor_type;location;lat;lon;timestamp;P1;durP1;ratioP1;P2;durP2;ratioP2
49834;SDS011;35729;52.090;13.162;2022-11-15T00:01:30;60.83;;;37.15;;
49834;SDS011;35729;52.090;13.162;2022-11-15T00:03:59;63.78;;;39.22;;
49834;SDS011;35729;52.090;13.162;2022-11-15T00:06:30;59.90;;;38.10;;
49834;SDS011;35729;52.090;13.162;2022-11-15T00:08:59;64.97;;;38.83;;
49834;SDS011;35729;52.090;13.162;2022-11-15T00:11:28;59.55;;;37.95;;
49834;SDS011;35729;52.090;13.162;2022-11-15T00:13:57;61.67;;;37.17;;
49834;SDS011;35729;52.090;13.162;2022-11-15T00:16:27;61.80;;;37.53;;
49834;SDS011;35729;52.090;13.162;2022-11-15T00:18:56;64.55;;;37.67;;
49834;SDS011;35729;52.090;13.162;2022-11-15T00:21:25;56.22;;;35.95;;
49834;SDS011;35729;52.090;13.162;2022-11-15T00:23:56;59.15;;;37.25;;
49834;SDS011;35729;52.090;13.162;2022-11-15T00:26:24;59.83;;;37.20;;
49834;SDS011;35729;52.090;13.162;2022-11-15T00:28:52;63.15;;;37.22;;
49834;SDS011;35729;52.090;13.162;2022-11-15T00:31:21;55.65;;;34.22;;
49834;SDS011;35729;52.090;13.162;2022-11-15T00:33:49;59.35;;;35.15;;
49834;SDS011;35729;52.090;13.162;2022-11-15T00:36:18;59.08;;;35.80;;
49834;SDS011;35729;52.090;13.162;2022-11-15T00:38:46;58.42;;;35.83;;
49834;SDS011;35729;52.090;13.162;2022-11-15T00:41:17;58.30;;;37.72;;
49834;SDS011;35729;52.090;13.162;2022-11-15T00:43:46;57.65;;;36.28;;
49834;SDS011;35729;52.090;13.162;2022-11-15T00:46:14;61.00;;;37.38;;
49834;SDS011;35729;52.090;13.162;2022-11-15T00:48:43;66.82;;;38.40;;
49834;SDS011;35729;52.090;13.162;2022-11-15T00:51:11;66.65;;;39.05;;
49834;SDS011;35729;52.090;13.162;2022-11-15T00:53:39;63.97;;;41.22;;
49834;SDS011;35729;52.090;13.162;2022-11-15T00:56:08;63.75;;;40.25;;
49834;SDS011;35729;52.090;13.162;2022-11-15T00:58:39;65.63;;;38.25;;
49834;SDS011;35729;52.090;13.162;2022-11-15T01:01:08;63.92;;;37.78;;
49834;SDS011;35729;52.090;13.162;2022-11-15T01:03:38;66.93;;;39.90;;
49834;SDS011;35729;52.090;13.162;2022-11-15T01:06:08;68.28;;;39.05;;
49834;SDS011;35729;52.090;13.162;2022-11-15T01:08:37;69.30;;;38.40;;
49834;SDS011;35729;52.090;13.162;2022-11-15T01:11:07;68.30;;;40.00;;
49834;SDS011;35729;52.090;13.162;2022-11-15T01:13:39;67.55;;;38.42;;
49834;SDS011;35729;52.090;13.162;2022-11-15T01:16:09;69.28;;;39.28;;
49834;SDS011;35729;52.090;13.162;2022-11-15T01:18:39;67.32;;;39.60;;
49834;SDS011;35729;52.090;13.162;2022-11-15T01:21:08;70.90;;;39.78;;
49834;SDS011;35729;52.090;13.162;2022-11-15T01:23:39;65.07;;;39.67;;
49834;SDS011;35729;52.090;13.162;2022-11-15T01:26:14;70.45;;;40.78;;
49834;SDS011;35729;52.090;13.162;2022-11-15T01:28:52;75.93;;;40.50;;
49834;SDS011;35729;52.090;13.162;2022-11-15T01:31:20;71.25;;;40.05;;
49834;SDS011;35729;52.090;13.162;2022-11-15T01:33:49;75.78;;;42.58;;
49834;SDS011;35729;52.090;13.162;2022-11-15T01:36:18;74.47;;;42.00;;
49834;SDS011;35729;52.090;13.162;2022-11-15T01:38:52;79.53;;;42.55;;
49834;SDS011;35729;52.090;13.162;2022-11-15T01:41:23;73.97;;;40.90;;
49834;SDS011;35729;52.090;13.162;2022-11-15T01:43:55;76.75;;;41.63;;
49834;SDS011;35729;52.090;13.162;2022-11-15T01:46:27;74.40;;;42.87;;
49834;SDS011;35729;52.090;13.162;2022-11-15T01:48:59;75.70;;;42.38;;
49834;SDS011;35729;52.090;13.162;2022-11-15T01:51:31;76.18;;;40.75;;
49834;SDS011;35729;52.090;13.162;2022-11-15T01:54:02;78.13;;;42.55;;
49834;SDS011;35729;52.090;13.162;2022-11-15T01:56:37;73.57;;;39.75;;
49834;SDS011;35729;52.090;13.162;2022-11-15T01:59:11;68.75;;;39.35;;
49834;SDS011;35729;52.090;13.162;2022-11-15T02:01:40;75.05;;;40.88;;
49834;SDS011;35729;52.090;13.162;2022-11-15T02:04:10;72.53;;;39.83;;
49834;SDS011;35729;52.090;13.162;2022-11-15T02:06:43;73.07;;;41.53;;
49834;SDS011;35729;52.090;13.162;2022-11-15T02:09:13;69.30;;;38.72;;
49834;SDS011;35729;52.090;13.162;2022-11-15T02:11:42;68.25;;;39.72;;
49834;SDS011;35729;52.090;13.162;2022-11-15T02:14:16;69.40;;;38.33;;
49834;SDS011;35729;52.090;13.162;2022-11-15T02:16:49;65.90;;;38.72;;
49834;SDS011;35729;52.090;13.162;2022-11-15T02:19:36;66.20;;;37.45;;
49834;SDS011;35729;52.090;13.162;2022-11-15T02:22:21;68.30;;;37.80;;
49834;SDS011;35729;52.090;13.162;2022-11-15T02:25:03;64.57;;;37.25;;
49834;SDS011;35729;52.090;13.162;2022-11-15T02:27:59;58.50;;;35.95;;
49834;SDS011;35729;52.090;13.162;2022-11-15T02:30:47;67.22;;;38.40;;
49834;SDS011;35729;52.090;13.162;2022-11-15T02:33:26;69.25;;;37.42;;
49834;SDS011;35729;52.090;13.162;2022-11-15T02:36:02;62.28;;;36.15;;
49834;SDS011;35729;52.090;13.162;2022-11-15T02:38:37;61.15;;;35.75;;
49834;SDS011;35729;52.090;13.162;2022-11-15T02:41:15;61.85;;;35.28;;
49834;SDS011;35729;52.090;13.162;2022-11-15T02:43:49;60.47;;;34.42;;
49834;SDS011;35729;52.090;13.162;2022-11-15T02:46:24;63.78;;;35.58;;
49834;SDS011;35729;52.090;13.162;2022-11-15T02:49:10;64.43;;;36.10;;
49834;SDS011;35729;52.090;13.162;2022-11-15T02:51:39;67.68;;;37.95;;
49834;SDS011;35729;52.090;13.162;2022-11-15T02:54:11;63.88;;;35.28;;
49834;SDS011;35729;52.090;13.162;2022-11-15T02:56:42;60.70;;;35.75;;
49834;SDS011;35729;52.090;13.162;2022-11-15T02:59:20;59.25;;;35.40;;
49834;SDS011;35729;52.090;13.162;2022-11-15T03:02:07;59.28;;;34.20;;
49834;SDS011;35729;52.090;13.162;2022-11-15T03:04:47;61.33;;;36.63;;
49834;SDS011;35729;52.090;13.162;2022-11-15T03:07:23;59.30;;;36.47;;
49834;SDS011;35729;52.090;13.162;2022-11-15T03:09:59;62.92;;;35.90;;
49834;SDS011;35729;52.090;13.162;2022-11-15T03:12:34;68.25;;;37.97;;
49834;SDS011;35729;52.090;13.162;2022-11-15T03:15:08;68.18;;;37.88;;
49834;SDS011;35729;52.090;13.162;2022-11-15T03:17:43;62.17;;;35.53;;
49834;SDS011;35729;52.090;13.162;2022-11-15T03:20:17;66.20;;;36.35;;
49834;SDS011;35729;52.090;13.162;2022-11-15T03:22:47;64.88;;;34.67;;
49834;SDS011;35729;52.090;13.162;2022-11-15T03:25:18;60.30;;;34.83;;
49834;SDS011;35729;52.090;13.162;2022-11-15T03:27:52;62.30;;;33.08;;
49834;SDS011;35729;52.090;13.162;2022-11-15T03:30:23;59.03;;;34.83;;
49834;SDS011;35729;52.090;13.162;2022-11-15T03:32:54;64.57;;;34.53;;
49834;SDS011;35729;52.090;13.162;2022-11-15T03:35:26;58.10;;;31.98;;
49834;SDS011;35729;52.090;13.162;2022-11-15T03:37:57;57.70;;;30.98;;
49834;SDS011;35729;52.090;13.162;2022-11-15T03:40:34;55.83;;;31.95;;
49834;SDS011;35729;52.090;13.162;2022-11-15T03:43:07;53.22;;;31.17;;
49834;SDS011;35729;52.090;13.162;2022-11-15T03:45:41;52.65;;;30.58;;
49834;SDS011;35729;52.090;13.162;2022-11-15T03:48:18;55.55;;;32.22;;
49834;SDS011;35729;52.090;13.162;2022-11-15T03:50:50;55.15;;;30.52;;
49834;SDS011;35729;52.090;13.162;2022-11-15T03:53:20;50.85;;;30.45;;
49834;SDS011;35729;52.090;13.162;2022-11-15T03:55:48;56.00;;;32.08;;
49834;SDS011;35729;52.090;13.162;2022-11-15T03:58:16;54.38;;;32.22;;
49834;SDS011;35729;52.090;13.162;2022-11-15T04:00:45;52.60;;;30.58;;
49834;SDS011;35729;52.090;13.162;2022-11-15T04:03:13;53.65;;;32.03;;
49834;SDS011;35729;52.090;13.162;2022-11-15T04:05:44;51.85;;;31.38;;
49834;SDS011;35729;52.090;13.162;2022-11-15T04:08:13;54.05;;;33.25;;
49834;SDS011;35729;52.090;13.162;2022-11-15T04:10:41;52.75;;;32.17;;
49834;SDS011;35729;52.090;13.162;2022-11-15T04:13:10;48.45;;;27.95;;
49834;SDS011;35729;52.090;13.162;2022-11-15T04:15:38;47.08;;;28.77;;
49834;SDS011;35729;52.090;13.162;2022-11-15T04:18:07;48.53;;;28.88;;
49834;SDS011;35729;52.090;13.162;2022-11-15T04:20:38;44.72;;;27.92;;
49834;SDS011;35729;52.090;13.162;2022-11-15T04:23:20;49.28;;;28.73;;
49834;SDS011;35729;52.090;13.162;2022-11-15T04:26:03;45.92;;;27.52;;
49834;SDS011;35729;52.090;13.162;2022-11-15T04:28:34;48.78;;;28.75;;
49834;SDS011;35729;52.090;13.162;2022-11-15T04:31:23;48.72;;;29.05;;
49834;SDS011;35729;52.090;13.162;2022-11-15T04:33:51;52.28;;;28.27;;
49834;SDS011;35729;52.090;13.162;2022-11-15T04:36:23;47.20;;;29.88;;
49834;SDS011;35729;52.090;13.162;2022-11-15T04:39:04;47.83;;;29.30;;
49834;SDS011;35729;52.090;13.162;2022-11-15T04:41:32;49.10;;;28.55;;
49834;SDS011;35729;52.090;13.162;2022-11-15T04:44:01;47.53;;;29.35;;
49834;SDS011;35729;52.090;13.162;2022-11-15T04:46:29;48.20;;;28.13;;
49834;SDS011;35729;52.090;13.162;2022-11-15T04:48:57;47.42;;;28.63;;
49834;SDS011;35729;52.090;13.162;2022-11-15T04:51:29;49.95;;;30.48;;
49834;SDS011;35729;52.090;13.162;2022-11-15T04:53:57;44.72;;;28.33;;
49834;SDS011;35729;52.090;13.162;2022-11-15T04:56:25;48.22;;;28.73;;
49834;SDS011;35729;52.090;13.162;2022-11-15T04:58:54;44.63;;;27.90;;
49834;SDS011;35729;52.090;13.162;2022-11-15T05:01:22;50.13;;;29.75;;
49834;SDS011;35729;52.090;13.162;2022-11-15T05:03:51;48.92;;;29.42;;
49834;SDS011;35729;52.090;13.162;2022-11-15T05:06:34;47.55;;;28.23;;
49834;SDS011;35729;52.090;13.162;2022-11-15T05:09:03;46.05;;;27.67;;
49834;SDS011;35729;52.090;13.162;2022-11-15T05:11:31;48.75;;;29.05;;
49834;SDS011;35729;52.090;13.162;2022-11-15T05:14:00;46.00;;;27.70;;
49834;SDS011;35729;52.090;13.162;2022-11-15T05:16:28;44.10;;;28.30;;
49834;SDS011;35729;52.090;13.162;2022-11-15T05:18:57;47.72;;;30.45;;
49834;SDS011;35729;52.090;13.162;2022-11-15T05:21:25;53.75;;;31.55;;
49834;SDS011;35729;52.090;13.162;2022-11-15T05:23:56;45.75;;;27.85;;
49834;SDS011;35729;52.090;13.162;2022-11-15T05:26:25;45.35;;;27.50;;
49834;SDS011;35729;52.090;13.162;2022-11-15T05:28:54;45.97;;;28.13;;
49834;SDS011;35729;52.090;13.162;2022-11-15T05:31:24;45.78;;;27.20;;
49834;SDS011;35729;52.090;13.162;2022-11-15T05:33:54;44.38;;;27.17;;
49834;SDS011;35729;52.090;13.162;2022-11-15T05:36:26;45.33;;;28.00;;
49834;SDS011;35729;52.090;13.162;2022-11-15T05:39:00;46.55;;;29.20;;
49834;SDS011;35729;52.090;13.162;2022-11-15T05:41:30;42.05;;;26.10;;
49834;SDS011;35729;52.090;13.162;2022-11-15T05:44:01;50.38;;;29.35;;
49834;SDS011;35729;52.090;13.162;2022-11-15T05:46:33;47.85;;;29.05;;
49834;SDS011;35729;52.090;13.162;2022-11-15T05:49:03;45.65;;;28.98;;
49834;SDS011;35729;52.090;13.162;2022-11-15T05:51:34;46.95;;;29.17;;
49834;SDS011;35729;52.090;13.162;2022-11-15T05:54:05;58.05;;;34.53;;
49834;SDS011;35729;52.090;13.162;2022-11-15T05:56:34;58.85;;;31.42;;
49834;SDS011;35729;52.090;13.162;2022-11-15T05:59:02;54.83;;;30.67;;
49834;SDS011;35729;52.090;13.162;2022-11-15T06:01:32;54.55;;;30.25;;
49834;SDS011;35729;52.090;13.162;2022-11-15T06:04:00;47.88;;;29.67;;
49834;SDS011;35729;52.090;13.162;2022-11-15T06:06:35;44.75;;;28.15;;
49834;SDS011;35729;52.090;13.162;2022-11-15T06:09:06;48.35;;;29.15;;
49834;SDS011;35729;52.090;13.162;2022-11-15T06:11:35;52.28;;;29.98;;
49834;SDS011;35729;52.090;13.162;2022-11-15T06:14:03;49.65;;;27.15;;
49834;SDS011;35729;52.090;13.162;2022-11-15T06:16:32;45.03;;;28.02;;
49834;SDS011;35729;52.090;13.162;2022-11-15T06:19:01;49.20;;;28.75;;
49834;SDS011;35729;52.090;13.162;2022-11-15T06:21:30;53.33;;;30.33;;
49834;SDS011;35729;52.090;13.162;2022-11-15T06:23:58;49.10;;;29.48;;
49834;SDS011;35729;52.090;13.162;2022-11-15T06:26:29;46.58;;;28.45;;
49834;SDS011;35729;52.090;13.162;2022-11-15T06:28:58;48.85;;;28.23;;
49834;SDS011;35729;52.090;13.162;2022-11-15T06:31:26;46.55;;;27.50;;
49834;SDS011;35729;52.090;13.162;2022-11-15T06:33:55;46.38;;;28.30;;
49834;SDS011;35729;52.090;13.162;2022-11-15T06:36:23;44.03;;;26.23;;
49834;SDS011;35729;52.090;13.162;2022-11-15T06:38:52;48.45;;;27.80;;
49834;SDS011;35729;52.090;13.162;2022-11-15T06:41:21;44.70;;;28.85;;
49834;SDS011;35729;52.090;13.162;2022-11-15T06:43:52;41.63;;;26.30;;
49834;SDS011;35729;52.090;13.162;2022-11-15T06:46:20;41.70;;;26.55;;
49834;SDS011;35729;52.090;13.162;2022-11-15T06:48:50;44.00;;;27.42;;
49834;SDS011;35729;52.090;13.162;2022-11-15T06:51:19;50.25;;;28.67;;
49834;SDS011;35729;52.090;13.162;2022-11-15T06:53:47;46.63;;;27.77;;
49834;SDS011;35729;52.090;13.162;2022-11-15T06:56:16;47.17;;;27.42;;
49834;SDS011;35729;52.090;13.162;2022-11-15T06:58:44;47.33;;;29.40;;
49834;SDS011;35729;52.090;13.162;2022-11-15T07:01:15;41.60;;;26.98;;
49834;SDS011;35729;52.090;13.162;2022-11-15T07:03:44;48.88;;;29.42;;
49834;SDS011;35729;52.090;13.162;2022-11-15T07:06:19;44.97;;;27.73;;
49834;SDS011;35729;52.090;13.162;2022-11-15T07:08:48;47.78;;;28.48;;
49834;SDS011;35729;52.090;13.162;2022-11-15T07:11:16;53.80;;;30.90;;
49834;SDS011;35729;52.090;13.162;2022-11-15T07:13:45;47.35;;;29.17;;
49834;SDS011;35729;52.090;13.162;2022-11-15T07:16:16;47.05;;;29.73;;
49834;SDS011;35729;52.090;13.162;2022-11-15T07:18:44;45.60;;;29.15;;
49834;SDS011;35729;52.090;13.162;2022-11-15T07:21:13;51.33;;;30.10;;
49834;SDS011;35729;52.090;13.162;2022-11-15T07:23:41;49.15;;;28.30;;
49834;SDS011;35729;52.090;13.162;2022-11-15T07:26:10;48.10;;;27.90;;
49834;SDS011;35729;52.090;13.162;2022-11-15T07:28:38;52.88;;;30.80;;
49834;SDS011;35729;52.090;13.162;2022-11-15T07:31:07;49.95;;;29.23;;
49834;SDS011;35729;52.090;13.162;2022-11-15T07:33:39;51.47;;;29.15;;
49834;SDS011;35729;52.090;13.162;2022-11-15T07:36:08;86.97;;;49.42;;
49834;SDS011;35729;52.090;13.162;2022-11-15T07:38:37;88.93;;;51.40;;
49834;SDS011;35729;52.090;13.162;2022-11-15T07:41:06;69.22;;;41.88;;
49834;SDS011;35729;52.090;13.162;2022-11-15T07:43:34;59.83;;;34.58;;
49834;SDS011;35729;52.090;13.162;2022-11-15T07:46:04;51.10;;;31.50;;
49834;SDS011;35729;52.090;13.162;2022-11-15T07:48:34;48.03;;;30.13;;
49834;SDS011;35729;52.090;13.162;2022-11-15T07:51:09;45.58;;;28.02;;
49834;SDS011;35729;52.090;13.162;2022-11-15T07:53:39;47.60;;;27.83;;
49834;SDS011;35729;52.090;13.162;2022-11-15T07:56:07;44.55;;;27.42;;
49834;SDS011;35729;52.090;13.162;2022-11-15T07:58:36;45.03;;;27.08;;
49834;SDS011;35729;52.090;13.162;2022-11-15T08:01:04;47.28;;;26.92;;
49834;SDS011;35729;52.090;13.162;2022-11-15T08:03:34;40.47;;;26.85;;
49834;SDS011;35729;52.090;13.162;2022-11-15T08:06:03;40.42;;;26.25;;
49834;SDS011;35729;52.090;13.162;2022-11-15T08:08:34;39.58;;;25.02;;
49834;SDS011;35729;52.090;13.162;2022-11-15T08:11:03;40.55;;;25.25;;
49834;SDS011;35729;52.090;13.162;2022-11-15T08:13:32;39.38;;;25.20;;
49834;SDS011;35729;52.090;13.162;2022-11-15T08:16:00;41.35;;;27.00;;
49834;SDS011;35729;52.090;13.162;2022-11-15T08:18:30;37.50;;;23.25;;
49834;SDS011;35729;52.090;13.162;2022-11-15T08:20:59;39.00;;;24.00;;
49834;SDS011;35729;52.090;13.162;2022-11-15T08:23:28;37.22;;;24.77;;
49834;SDS011;35729;52.090;13.162;2022-11-15T08:26:03;35.70;;;23.10;;
49834;SDS011;35729;52.090;13.162;2022-11-15T08:28:32;34.90;;;21.73;;
49834;SDS011;35729;52.090;13.162;2022-11-15T08:31:00;34.67;;;23.08;;
49834;SDS011;35729;52.090;13.162;2022-11-15T08:33:30;35.30;;;21.85;;
49834;SDS011;35729;52.090;13.162;2022-11-15T08:36:00;31.52;;;20.73;;
49834;SDS011;35729;52.090;13.162;2022-11-15T08:38:28;31.65;;;21.58;;
49834;SDS011;35729;52.090;13.162;2022-11-15T08:40:59;32.58;;;20.83;;
49834;SDS011;35729;52.090;13.162;2022-11-15T08:43:32;28.88;;;19.40;;
49834;SDS011;35729;52.090;13.162;2022-11-15T08:46:01;29.20;;;19.98;;
49834;SDS011;35729;52.090;13.162;2022-11-15T08:48:29;31.67;;;19.95;;
49834;SDS011;35729;52.090;13.162;2022-11-15T08:50:58;28.45;;;19.77;;
49834;SDS011;35729;52.090;13.162;2022-11-15T08:53:26;27.88;;;18.58;;
49834;SDS011;35729;52.090;13.162;2022-11-15T08:55:55;30.33;;;18.48;;
49834;SDS011;35729;52.090;13.162;2022-11-15T08:58:26;25.13;;;18.00;;
49834;SDS011;35729;52.090;13.162;2022-11-15T09:00:54;28.83;;;17.95;;
49834;SDS011;35729;52.090;13.162;2022-11-15T09:03:23;26.15;;;17.58;;
49834;SDS011;35729;52.090;13.162;2022-11-15T09:05:54;28.13;;;17.63;;
49834;SDS011;35729;52.090;13.162;2022-11-15T09:08:23;22.95;;;16.38;;
49834;SDS011;35729;52.090;13.162;2022-11-15T09:10:51;24.85;;;17.48;;
49834;SDS011;35729;52.090;13.162;2022-11-15T09:13:20;23.27;;;17.10;;
49834;SDS011;35729;52.090;13.162;2022-11-15T09:15:51;24.52;;;16.88;;
49834;SDS011;35729;52.090;13.162;2022-11-15T09:18:19;21.85;;;15.45;;
49834;SDS011;35729;52.090;13.162;2022-11-15T09:20:48;26.30;;;17.10;;
49834;SDS011;35729;52.090;13.162;2022-11-15T09:23:17;25.75;;;16.92;;
49834;SDS011;35729;52.090;13.162;2022-11-15T09:25:46;20.13;;;14.68;;
49834;SDS011;35729;52.090;13.162;2022-11-15T09:28:14;24.67;;;14.70;;
49834;SDS011;35729;52.090;13.162;2022-11-15T09:30:43;20.63;;;13.60;;
49834;SDS011;35729;52.090;13.162;2022-11-15T09:33:14;21.13;;;15.38;;
49834;SDS011;35729;52.090;13.162;2022-11-15T09:35:42;21.40;;;14.52;;
49834;SDS011;35729;52.090;13.162;2022-11-15T09:38:11;20.85;;;13.60;;
49834;SDS011;35729;52.090;13.162;2022-11-15T09:40:39;20.88;;;14.02;;
49834;SDS011;35729;52.090;13.162;2022-11-15T09:43:11;20.98;;;12.73;;
49834;SDS011;35729;52.090;13.162;2022-11-15T09:46:02;17.10;;;12.40;;
49834;SDS011;35729;52.090;13.162;2022-11-15T09:51:29;17.98;;;12.20;;
49834;SDS011;35729;52.090;13.162;2022-11-15T09:54:02;16.08;;;12.07;;
49834;SDS011;35729;52.090;13.162;2022-11-15T09:56:38;20.35;;;12.63;;
49834;SDS011;35729;52.090;13.162;2022-11-15T09:59:22;16.98;;;11.57;;
49834;SDS011;35729;52.090;13.162;2022-11-15T10:02:03;15.10;;;10.50;;
49834;SDS011;35729;52.090;13.162;2022-11-15T10:04:48;15.35;;;10.43;;
49834;SDS011;35729;52.090;13.162;2022-11-15T10:07:18;17.50;;;11.70;;
49834;SDS011;35729;52.090;13.162;2022-11-15T10:09:51;18.23;;;11.00;;
49834;SDS011;35729;52.090;13.162;2022-11-15T10:12:23;12.93;;;9.77;;
49834;SDS011;35729;52.090;13.162;2022-11-15T10:14:55;15.95;;;10.57;;
49834;SDS011;35729;52.090;13.162;2022-11-15T10:17:56;14.30;;;10.32;;
49834;SDS011;35729;52.090;13.162;2022-11-15T10:20:39;16.10;;;10.82;;
49834;SDS011;35729;52.090;13.162;2022-11-15T10:23:15;14.38;;;9.98;;
49834;SDS011;35729;52.090;13.162;2022-11-15T10:25:45;14.75;;;10.30;;
49834;SDS011;35729;52.090;13.162;2022-11-15T10:28:15;16.27;;;10.85;;
49834;SDS011;35729;52.090;13.162;2022-11-15T10:30:58;14.20;;;10.55;;
49834;SDS011;35729;52.090;13.162;2022-11-15T10:33:29;14.75;;;10.55;;
49834;SDS011;35729;52.090;13.162;2022-11-15T10:36:18;13.52;;;10.25;;
49834;SDS011;35729;52.090;13.162;2022-11-15T10:38:51;15.68;;;10.10;;
49834;SDS011;35729;52.090;13.162;2022-11-15T10:41:35;18.02;;;12.10;;
49834;SDS011;35729;52.090;13.162;2022-11-15T10:47:19;13.23;;;9.40;;
49834;SDS011;35729;52.090;13.162;2022-11-15T10:49:54;13.57;;;9.55;;
49834;SDS011;35729;52.090;13.162;2022-11-15T10:52:30;12.88;;;8.70;;
49834;SDS011;35729;52.090;13.162;2022-11-15T10:55:02;12.65;;;9.30;;
49834;SDS011;35729;52.090;13.162;2022-11-15T10:57:36;12.65;;;8.68;;
49834;SDS011;35729;52.090;13.162;2022-11-15T11:00:06;13.45;;;8.27;;
49834;SDS011;35729;52.090;13.162;2022-11-15T11:02:58;12.20;;;8.55;;
49834;SDS011;35729;52.090;13.162;2022-11-15T11:05:29;13.80;;;9.00;;
49834;SDS011;35729;52.090;13.162;2022-11-15T11:08:03;12.20;;;8.68;;
49834;SDS011;35729;52.090;13.162;2022-11-15T11:10:33;11.30;;;8.93;;
49834;SDS011;35729;52.090;13.162;2022-11-15T11:13:14;12.52;;;8.93;;
49834;SDS011;35729;52.090;13.162;2022-11-15T11:15:51;12.55;;;8.60;;
49834;SDS011;35729;52.090;13.162;2022-11-15T11:18:27;15.18;;;10.35;;
49834;SDS011;35729;52.090;13.162;2022-11-15T11:21:03;13.25;;;8.95;;
49834;SDS011;35729;52.090;13.162;2022-11-15T11:23:42;13.65;;;8.00;;
49834;SDS011;35729;52.090;13.162;2022-11-15T11:26:26;11.23;;;8.50;;
49834;SDS011;35729;52.090;13.162;2022-11-15T11:29:06;12.50;;;8.77;;
49834;SDS011;35729;52.090;13.162;2022-11-15T11:31:54;13.80;;;10.52;;
49834;SDS011;35729;52.090;13.162;2022-11-15T11:34:34;12.40;;;9.20;;
49834;SDS011;35729;52.090;13.162;2022-11-15T11:37:12;13.77;;;9.45;;
49834;SDS011;35729;52.090;13.162;2022-11-15T11:39:52;11.18;;;7.70;;
49834;SDS011;35729;52.090;13.162;2022-11-15T11:42:34;9.30;;;7.38;;
49834;SDS011;35729;52.090;13.162;2022-11-15T11:45:14;8.75;;;7.18;;
49834;SDS011;35729;52.090;13.162;2022-11-15T11:47:47;9.57;;;7.57;;
49834;SDS011;35729;52.090;13.162;2022-11-15T11:50:19;13.68;;;7.60;;
49834;SDS011;35729;52.090;13.162;2022-11-15T11:52:53;8.63;;;6.97;;
49834;SDS011;35729;52.090;13.162;2022-11-15T11:55:29;10.07;;;6.57;;
49834;SDS011;35729;52.090;13.162;2022-11-15T11:58:03;10.10;;;6.88;;
49834;SDS011;35729;52.090;13.162;2022-11-15T12:00:38;10.05;;;6.80;;
49834;SDS011;35729;52.090;13.162;2022-11-15T12:03:12;9.70;;;6.93;;
49834;SDS011;35729;52.090;13.162;2022-11-15T12:05:48;7.47;;;6.53;;
49834;SDS011;35729;52.090;13.162;2022-11-15T12:08:23;9.15;;;6.88;;
49834;SDS011;35729;52.090;13.162;2022-11-15T12:11:03;9.23;;;6.82;;
49834;SDS011;35729;52.090;13.162;2022-11-15T12:13:37;9.32;;;6.78;;
49834;SDS011;35729;52.090;13.162;2022-11-15T12:16:11;10.70;;;7.45;;
49834;SDS011;35729;52.090;13.162;2022-11-15T12:18:46;15.00;;;10.40;;
49834;SDS011;35729;52.090;13.162;2022-11-15T12:21:18;9.35;;;7.15;;
49834;SDS011;35729;52.090;13.162;2022-11-15T12:23:53;15.70;;;8.43;;
49834;SDS011;35729;52.090;13.162;2022-11-15T12:26:32;12.45;;;7.90;;
49834;SDS011;35729;52.090;13.162;2022-11-15T12:29:16;8.77;;;6.22;;
49834;SDS011;35729;52.090;13.162;2022-11-15T12:31:52;9.60;;;7.40;;
49834;SDS011;35729;52.090;13.162;2022-11-15T12:40:18;7.90;;;5.80;;
49834;SDS011;35729;52.090;13.162;2022-11-15T12:43:02;7.80;;;5.78;;
49834;SDS011;35729;52.090;13.162;2022-11-15T12:45:33;9.73;;;6.72;;
49834;SDS011;35729;52.090;13.162;2022-11-15T12:51:02;12.27;;;6.57;;
49834;SDS011;35729;52.090;13.162;2022-11-15T12:53:32;12.10;;;8.48;;
49834;SDS011;35729;52.090;13.162;2022-11-15T12:56:08;13.50;;;8.95;;
49834;SDS011;35729;52.090;13.162;2022-11-15T12:58:56;14.48;;;9.45;;
49834;SDS011;35729;52.090;13.162;2022-11-15T13:04:26;9.45;;;6.55;;
49834;SDS011;35729;52.090;13.162;2022-11-15T13:06:58;9.38;;;7.40;;
49834;SDS011;35729;52.090;13.162;2022-11-15T13:15:43;10.35;;;7.47;;
49834;SDS011;35729;52.090;13.162;2022-11-15T13:21:19;10.45;;;6.47;;
49834;SDS011;35729;52.090;13.162;2022-11-15T13:24:02;10.05;;;6.90;;
49834;SDS011;35729;52.090;13.162;2022-11-15T13:26:31;9.95;;;7.63;;
49834;SDS011;35729;52.090;13.162;2022-11-15T13:28:59;11.70;;;6.60;;
49834;SDS011;35729;52.090;13.162;2022-11-15T13:31:37;11.07;;;6.47;;
49834;SDS011;35729;52.090;13.162;2022-11-15T13:34:17;8.93;;;5.93;;
49834;SDS011;35729;52.090;13.162;2022-11-15T13:36:53;7.40;;;6.28;;
49834;SDS011;35729;52.090;13.162;2022-11-15T13:39:26;9.00;;;5.78;;
49834;SDS011;35729;52.090;13.162;2022-11-15T13:41:56;8.77;;;6.38;;
49834;SDS011;35729;52.090;13.162;2022-11-15T13:44:26;7.40;;;5.90;;
49834;SDS011;35729;52.090;13.162;2022-11-15T13:47:06;7.40;;;5.90;;
49834;SDS011;35729;52.090;13.162;2022-11-15T13:49:41;6.78;;;5.57;;
49834;SDS011;35729;52.090;13.162;2022-11-15T13:52:10;8.88;;;6.07;;
49834;SDS011;35729;52.090;13.162;2022-11-15T13:54:42;9.93;;;6.82;;
49834;SDS011;35729;52.090;13.162;2022-11-15T13:57:17;6.38;;;4.97;;
49834;SDS011;35729;52.090;13.162;2022-11-15T13:59:48;6.93;;;5.80;;
49834;SDS011;35729;52.090;13.162;2022-11-15T14:02:25;8.18;;;5.90;;
49834;SDS011;35729;52.090;13.162;2022-11-15T14:04:58;9.10;;;6.80;;
49834;SDS011;35729;52.090;13.162;2022-11-15T14:07:52;7.75;;;5.97;;
49834;SDS011;35729;52.090;13.162;2022-11-15T14:10:24;7.65;;;5.78;;
49834;SDS011;35729;52.090;13.162;2022-11-15T14:12:56;7.10;;;5.40;;
49834;SDS011;35729;52.090;13.162;2022-11-15T14:15:26;8.80;;;5.25;;
49834;SDS011;35729;52.090;13.162;2022-11-15T14:17:59;8.00;;;6.05;;
49834;SDS011;35729;52.090;13.162;2022-11-15T14:20:36;9.27;;;6.28;;
49834;SDS011;35729;52.090;13.162;2022-11-15T14:23:18;8.93;;;5.68;;
49834;SDS011;35729;52.090;13.162;2022-11-15T14:25:51;6.22;;;5.35;;
49834;SDS011;35729;52.090;13.162;2022-11-15T14:28:28;8.02;;;5.10;;
49834;SDS011;35729;52.090;13.162;2022-11-15T14:31:04;6.82;;;5.38;;
49834;SDS011;35729;52.090;13.162;2022-11-15T14:33:41;9.18;;;5.63;;
49834;SDS011;35729;52.090;13.162;2022-11-15T14:36:11;9.13;;;5.97;;
49834;SDS011;35729;52.090;13.162;2022-11-15T14:38:41;8.82;;;5.93;;
49834;SDS011;35729;52.090;13.162;2022-11-15T14:41:11;9.63;;;6.38;;
49834;SDS011;35729;52.090;13.162;2022-11-15T14:43:47;25.50;;;16.88;;
49834;SDS011;35729;52.090;13.162;2022-11-15T14:46:16;18.63;;;13.18;;
49834;SDS011;35729;52.090;13.162;2022-11-15T14:48:47;23.60;;;12.45;;
49834;SDS011;35729;52.090;13.162;2022-11-15T14:51:17;13.98;;;10.82;;
49834;SDS011;35729;52.090;13.162;2022-11-15T14:53:46;12.52;;;8.23;;
49834;SDS011;35729;52.090;13.162;2022-11-15T14:56:16;11.27;;;7.55;;
49834;SDS011;35729;52.090;13.162;2022-11-15T14:58:44;12.48;;;6.85;;
49834;SDS011;35729;52.090;13.162;2022-11-15T15:01:13;12.85;;;7.97;;
49834;SDS011;35729;52.090;13.162;2022-11-15T15:03:48;20.35;;;13.20;;
49834;SDS011;35729;52.090;13.162;2022-11-15T15:06:17;17.85;;;11.43;;
49834;SDS011;35729;52.090;13.162;2022-11-15T15:08:45;12.80;;;9.82;;
49834;SDS011;35729;52.090;13.162;2022-11-15T15:11:16;12.43;;;8.57;;